createdAt,value
2023-03-06T00:01:27.371Z,100942.63
2023-03-06T00:03:57.591Z,100933.34
2023-03-06T00:06:27.758Z,100939.00
2023-03-06T00:08:58.683Z,100932.53
2023-03-06T00:11:31.111Z,100928.91
2023-03-06T00:14:01.769Z,100927.25
2023-03-06T00:16:31.953Z,100936.94
2023-03-06T00:19:02.467Z,100942.13
2023-03-06T00:21:33.006Z,100935.69
2023-03-06T00:24:03.808Z,100928.41
2023-03-06T00:26:36.431Z,100934.06
2023-03-06T00:29:06.305Z,100936.03
2023-03-06T00:31:36.773Z,100938.06
2023-03-06T00:34:06.779Z,100942.06
2023-03-06T00:36:36.551Z,100943.63
2023-03-06T00:39:06.852Z,100946.00
2023-03-06T00:41:39.469Z,100944.38
2023-03-06T00:44:10.408Z,100940.31
2023-03-06T00:46:41.301Z,100943.50
2023-03-06T00:49:12.666Z,100937.03
2023-03-06T00:51:43.456Z,100933.38
2023-03-06T00:54:13.589Z,100935.41
2023-03-06T00:56:46.493Z,100934.59
2023-03-06T00:59:16.398Z,100937.78
2023-03-06T01:01:46.398Z,100932.53
2023-03-06T01:04:17.616Z,100930.09
2023-03-06T01:06:47.716Z,100923.16
2023-03-06T01:09:17.549Z,100923.94
2023-03-06T01:11:50.115Z,100928.75
2023-03-06T01:14:21.806Z,100927.97
2023-03-06T01:16:52.631Z,100925.50
2023-03-06T01:19:23.577Z,100934.78
2023-03-06T01:21:54.163Z,100929.16
2023-03-06T01:24:26.351Z,100935.97
2023-03-06T01:26:57.820Z,100943.63
2023-03-06T01:29:28.110Z,100942.81
2023-03-06T01:31:58.688Z,100943.22
2023-03-06T01:34:29.686Z,100944.75
2023-03-06T01:36:59.874Z,100945.13
2023-03-06T01:39:32.078Z,100950.34
2023-03-06T01:42:04.054Z,100941.06
2023-03-06T01:44:34.834Z,100942.25
2023-03-06T01:47:04.873Z,100939.81
2023-03-06T01:49:39.542Z,100939.00
2023-03-06T01:52:17.030Z,100936.56
2023-03-06T01:54:53.706Z,100934.91
2023-03-06T01:57:30.817Z,100938.94
2023-03-06T02:00:11.299Z,100945.75
2023-03-06T02:02:44.710Z,100944.97
2023-03-06T02:05:16.256Z,100950.16
2023-03-06T02:07:48.987Z,100950.50
2023-03-06T02:10:24.358Z,100952.09
2023-03-06T02:12:57.389Z,100954.09
2023-03-06T02:15:30.820Z,100956.47
2023-03-06T02:18:03.084Z,100950.03
2023-03-06T02:20:42.638Z,100959.25
2023-03-06T02:23:23.000Z,100955.97
2023-03-06T02:25:57.680Z,100956.34
2023-03-06T02:28:29.286Z,100957.91
2023-03-06T02:31:01.255Z,100959.13
2023-03-06T02:33:35.557Z,100960.28
2023-03-06T02:36:08.763Z,100965.09
2023-03-06T02:38:52.600Z,100977.56
2023-03-06T02:41:26.011Z,100978.31
2023-03-06T02:43:57.130Z,100983.50
2023-03-06T02:46:27.789Z,100983.06
2023-03-06T02:48:58.421Z,100987.47
2023-03-06T02:51:30.019Z,100992.66
2023-03-06T02:54:00.641Z,100994.22
2023-03-06T02:56:32.661Z,100995.41
2023-03-06T02:59:02.745Z,100988.13
2023-03-06T03:01:32.882Z,100995.75
2023-03-06T03:04:04.271Z,100987.69
2023-03-06T03:06:39.049Z,100986.88
2023-03-06T03:09:09.558Z,100992.06
2023-03-06T03:11:42.218Z,100992.88
2023-03-06T03:14:12.101Z,100984.78
2023-03-06T03:16:47.648Z,100990.81
2023-03-06T03:19:17.637Z,100994.81
2023-03-06T03:21:48.580Z,100993.63
2023-03-06T03:24:18.726Z,100991.63
2023-03-06T03:26:51.496Z,100997.25
2023-03-06T03:29:22.457Z,100997.25
2023-03-06T03:31:53.259Z,101001.72
2023-03-06T03:34:24.877Z,101002.97
2023-03-06T03:36:55.361Z,101000.06
2023-03-06T03:39:26.590Z,100999.28
2023-03-06T03:41:58.619Z,101006.91
2023-03-06T03:44:28.723Z,101008.91
2023-03-06T03:46:59.303Z,101007.28
2023-03-06T03:49:30.085Z,101006.81
2023-03-06T03:52:01.203Z,101002.38
2023-03-06T03:54:32.046Z,101002.38
2023-03-06T03:57:04.681Z,101000.72
2023-03-06T03:59:35.240Z,101001.13
2023-03-06T04:02:06.312Z,101000.28
2023-03-06T04:04:37.020Z,101011.16
2023-03-06T04:07:08.064Z,101012.31
2023-03-06T04:09:38.975Z,101014.69
2023-03-06T04:12:12.518Z,101026.34
2023-03-06T04:14:49.574Z,101022.69
2023-03-06T04:17:19.436Z,101017.78
2023-03-06T04:19:50.493Z,101020.59
2023-03-06T04:22:20.679Z,101027.47
2023-03-06T04:24:51.104Z,101025.00
2023-03-06T04:27:23.980Z,101034.63
2023-03-06T04:29:58.429Z,101024.91
2023-03-06T04:32:28.805Z,101041.03
2023-03-06T04:35:00.337Z,101028.91
2023-03-06T04:37:32.222Z,101039.41
2023-03-06T04:40:03.867Z,101050.28
2023-03-06T04:42:37.041Z,101033.00
2023-03-06T04:45:11.065Z,101034.63
2023-03-06T04:47:41.793Z,101046.75
2023-03-06T04:50:14.389Z,101058.03
2023-03-06T04:52:47.236Z,101056.00
2023-03-06T04:55:21.149Z,101056.00
2023-03-06T04:57:53.240Z,101057.63
2023-03-06T05:00:29.881Z,101071.34
2023-03-06T05:03:02.400Z,101069.00
2023-03-06T05:05:33.562Z,101068.66
2023-03-06T05:08:04.198Z,101063.09
2023-03-06T05:10:35.539Z,101070.44
2023-03-06T05:13:08.733Z,101069.31
2023-03-06T05:15:39.611Z,101071.03
2023-03-06T05:18:10.736Z,101067.47
2023-03-06T05:20:41.348Z,101078.00
2023-03-06T05:23:12.620Z,101078.47
2023-03-06T05:25:43.366Z,101087.38
2023-03-06T05:28:15.393Z,101086.19
2023-03-06T05:30:45.393Z,101095.09
2023-03-06T05:33:16.716Z,101091.53
2023-03-06T05:35:48.813Z,101098.88
2023-03-06T05:38:23.622Z,101098.63
2023-03-06T05:40:53.574Z,101099.94
2023-03-06T05:43:26.240Z,101100.91
2023-03-06T05:46:04.918Z,101096.66
2023-03-06T05:48:36.571Z,101104.91
2023-03-06T05:51:09.590Z,101109.16
2023-03-06T05:53:40.725Z,101109.72
2023-03-06T05:56:14.045Z,101113.97
2023-03-06T05:58:47.013Z,101118.94
2023-03-06T06:01:20.949Z,101130.28
2023-03-06T06:03:51.880Z,101126.72
2023-03-06T06:06:23.347Z,101128.38
2023-03-06T06:08:53.686Z,101124.72
2023-03-06T06:11:23.934Z,101131.66
2023-03-06T06:13:56.874Z,101122.41
2023-03-06T06:16:27.840Z,101133.34
2023-03-06T06:19:00.588Z,101132.94
2023-03-06T06:21:31.578Z,101135.38
2023-03-06T06:24:01.549Z,101139.84
2023-03-06T06:26:32.208Z,101150.41
2023-03-06T06:29:07.660Z,101148.78
2023-03-06T06:31:38.745Z,101159.28
2023-03-06T06:34:11.169Z,101159.63
2023-03-06T06:36:42.287Z,101153.53
2023-03-06T06:39:18.159Z,101157.19
2023-03-06T06:42:05.665Z,101147.53
2023-03-06T06:44:43.413Z,101150.41
2023-03-06T06:47:24.426Z,101158.94
2023-03-06T06:49:57.401Z,101165.94
2023-03-06T06:52:28.248Z,101160.34
2023-03-06T06:54:59.628Z,101153.94
2023-03-06T06:57:50.990Z,101157.66
2023-03-06T07:00:28.395Z,101165.00
2023-03-06T07:02:59.674Z,101172.78
2023-03-06T07:05:30.581Z,101175.31
2023-03-06T07:08:01.504Z,101176.66
2023-03-06T07:10:32.328Z,101173.94
2023-03-06T07:13:02.502Z,101175.63
2023-03-06T07:15:35.274Z,101182.16
2023-03-06T07:18:06.172Z,101188.63
2023-03-06T07:20:37.693Z,101184.59
2023-03-06T07:23:10.593Z,101191.44
2023-03-06T07:25:42.003Z,101196.66
2023-03-06T07:28:12.973Z,101189.00
2023-03-06T07:30:46.755Z,101191.44
2023-03-06T07:33:20.260Z,101199.56
2023-03-06T07:35:51.794Z,101199.63
2023-03-06T07:38:21.866Z,101197.59
2023-03-06T07:40:54.742Z,101193.19
2023-03-06T07:43:26.012Z,101191.25
2023-03-06T07:46:03.355Z,101190.56
2023-03-06T07:48:34.593Z,101188.59
2023-03-06T07:51:08.347Z,101197.97
2023-03-06T07:53:39.705Z,101196.38
2023-03-06T07:56:12.428Z,101194.78
2023-03-06T07:58:47.564Z,101199.28
2023-03-06T08:01:24.836Z,101200.94
2023-03-06T08:03:57.023Z,101189.59
2023-03-06T08:06:30.539Z,101196.09
2023-03-06T08:09:01.842Z,101187.59
2023-03-06T08:11:33.807Z,101193.69
2023-03-06T08:14:04.560Z,101192.47
2023-03-06T08:16:36.935Z,101191.72
2023-03-06T08:19:07.984Z,101191.34
2023-03-06T08:21:38.668Z,101188.94
2023-03-06T08:24:10.117Z,101184.94
2023-03-06T08:26:41.422Z,101195.84
2023-03-06T08:29:14.448Z,101191.47
2023-03-06T08:31:49.120Z,101200.38
2023-03-06T08:34:24.862Z,101193.16
2023-03-06T08:36:56.521Z,101196.03
2023-03-06T08:39:28.239Z,101188.38
2023-03-06T08:41:58.780Z,101197.75
2023-03-06T08:44:29.200Z,101193.72
2023-03-06T08:47:02.314Z,101201.03
2023-03-06T08:49:34.377Z,101207.88
2023-03-06T08:52:06.385Z,101212.72
2023-03-06T08:54:39.255Z,101213.09
2023-03-06T08:57:11.101Z,101211.47
2023-03-06T08:59:42.600Z,101207.78
2023-03-06T09:02:19.046Z,101215.00
2023-03-06T09:04:53.374Z,101199.22
2023-03-06T09:07:28.132Z,101202.06
2023-03-06T09:10:00.383Z,101207.34
2023-03-06T09:12:40.411Z,101205.75
2023-03-06T09:15:20.098Z,101199.72
2023-03-06T09:17:54.733Z,101201.78
2023-03-06T09:20:26.286Z,101201.81
2023-03-06T09:22:58.688Z,101198.63
2023-03-06T09:25:30.514Z,101190.13
2023-03-06T09:28:11.226Z,101202.72
2023-03-06T09:30:44.636Z,101201.13
2023-03-06T09:33:25.705Z,101198.72
2023-03-06T09:36:04.434Z,101193.09
2023-03-06T09:38:42.491Z,101190.72
2023-03-06T09:41:35.315Z,101187.13
2023-03-06T09:44:16.491Z,101190.34
2023-03-06T09:47:14.213Z,101193.63
2023-03-06T09:50:07.353Z,101192.06
2023-03-06T09:52:48.160Z,101190.06
2023-03-06T09:55:23.924Z,101182.00
2023-03-06T09:58:02.775Z,101180.81
2023-03-06T10:00:43.054Z,101179.59
2023-03-06T10:03:30.460Z,101176.38
2023-03-06T10:06:20.765Z,101180.00
2023-03-06T10:09:01.834Z,101186.13
2023-03-06T10:11:44.073Z,101178.84
2023-03-06T10:14:39.913Z,101180.50
2023-03-06T10:17:18.701Z,101186.16
2023-03-06T10:19:49.775Z,101191.03
2023-03-06T10:22:33.625Z,101177.63
2023-03-06T10:25:23.517Z,101167.06
2023-03-06T10:28:04.243Z,101179.59
2023-03-06T10:30:48.452Z,101175.94
2023-03-06T10:33:36.533Z,101179.19
2023-03-06T10:36:10.932Z,101173.88
2023-03-06T10:38:45.924Z,101164.09
2023-03-06T10:41:28.286Z,101161.28
2023-03-06T10:44:24.051Z,101166.50
2023-03-06T10:46:58.041Z,101170.16
2023-03-06T10:56:00.305Z,101157.13
2023-03-06T10:58:41.121Z,101161.16
2023-03-06T11:01:23.538Z,101156.25
2023-03-06T11:03:55.769Z,101154.19
2023-03-06T11:06:36.670Z,101150.91
2023-03-06T11:09:27.159Z,101140.75
2023-03-06T11:12:25.522Z,101147.94
2023-03-06T11:15:21.622Z,101135.72
2023-03-06T11:17:58.139Z,101147.81
2023-03-06T11:20:50.627Z,101156.66
2023-03-06T11:23:31.522Z,101157.06
2023-03-06T11:26:12.601Z,101155.44
2023-03-06T11:28:51.354Z,101155.81
2023-03-06T11:31:26.693Z,101159.44
2023-03-06T11:34:04.381Z,101152.16
2023-03-06T11:36:46.822Z,101150.53
2023-03-06T11:39:31.458Z,101168.69
2023-03-06T11:42:12.891Z,101153.69
2023-03-06T11:45:00.349Z,101146.78
2023-03-06T11:47:37.755Z,101160.84
2023-03-06T11:50:24.384Z,101149.47
2023-03-06T11:52:59.530Z,101154.69
2023-03-06T11:55:46.780Z,101152.25
2023-03-06T11:58:56.524Z,101158.66
2023-03-06T12:01:38.916Z,101167.94
2023-03-06T12:04:56.262Z,101153.34
2023-03-06T12:07:34.158Z,101153.34
2023-03-06T12:10:19.493Z,101148.50
2023-03-06T12:16:24.837Z,101156.16
2023-03-06T12:19:15.405Z,101150.50
2023-03-06T12:22:05.458Z,101154.53
2023-03-06T12:25:19.909Z,101150.81
2023-03-06T12:28:15.027Z,101151.22
2023-03-06T12:31:25.378Z,101144.66
2023-03-06T12:34:33.391Z,101146.25
2023-03-06T12:37:22.756Z,101139.75
2023-03-06T12:40:45.088Z,101138.06
2023-03-06T12:44:06.485Z,101137.63
2023-03-06T12:46:42.587Z,101137.63
2023-03-06T12:49:32.040Z,101135.59
2023-03-06T12:52:06.842Z,101138.41
2023-03-06T12:54:45.950Z,101127.94
2023-03-06T12:57:18.546Z,101126.31
2023-03-06T12:59:51.745Z,101131.97
2023-03-06T13:03:08.574Z,101131.13
2023-03-06T13:06:44.937Z,101136.28
2023-03-06T13:09:29.347Z,101129.78
2023-03-06T13:12:38.616Z,101139.84
2023-03-06T13:16:09.044Z,101135.69
2023-03-06T13:19:21.834Z,101132.75
2023-03-06T13:22:34.003Z,101144.00
2023-03-06T13:25:52.585Z,101137.91
2023-03-06T13:28:53.093Z,101139.50
2023-03-06T13:31:51.497Z,101140.25
2023-03-06T13:34:41.087Z,101140.19
2023-03-06T13:37:56.308Z,101144.59
2023-03-06T13:40:38.882Z,101137.69
2023-03-06T13:43:28.154Z,101140.06
2023-03-06T13:45:59.538Z,101137.59
2023-03-06T13:48:44.623Z,101141.59
2023-03-06T13:51:30.004Z,101143.19
2023-03-06T13:54:39.836Z,101153.25
2023-03-06T13:58:01.419Z,101149.53
2023-03-06T14:01:29.873Z,101140.63
2023-03-06T14:04:37.410Z,101140.53
2023-03-06T14:07:25.043Z,101142.56
2023-03-06T14:10:23.514Z,101151.41
2023-03-06T14:13:11.750Z,101152.59
2023-03-06T14:15:50.956Z,101148.50
2023-03-06T14:18:29.641Z,101152.91
2023-03-06T14:21:04.964Z,101154.47
2023-03-06T14:23:42.855Z,101158.88
2023-03-06T14:26:18.516Z,101163.25
2023-03-06T14:29:00.643Z,101173.28
2023-03-06T14:31:40.699Z,101170.81
2023-03-06T14:34:20.549Z,101170.34
2023-03-06T14:36:58.002Z,101167.06
2023-03-06T14:39:45.167Z,101170.28
2023-03-06T14:42:25.541Z,101172.66
2023-03-06T14:45:23.585Z,101166.94
2023-03-06T14:48:08.305Z,101169.78
2023-03-06T14:50:55.283Z,101171.34
2023-03-06T14:53:42.846Z,101179.75
2023-03-06T14:56:22.153Z,101172.38
2023-03-06T14:58:59.874Z,101174.75
2023-03-06T15:01:37.615Z,101187.63
2023-03-06T15:04:22.142Z,101178.25
2023-03-06T15:07:05.212Z,101180.53
2023-03-06T15:09:41.106Z,101186.03
2023-03-06T15:12:39.261Z,101189.53
2023-03-06T15:15:31.824Z,101192.25
2023-03-06T15:18:03.978Z,101184.53
2023-03-06T15:20:46.664Z,101189.38
2023-03-06T15:23:27.105Z,101184.44
2023-03-06T15:26:03.662Z,101182.72
2023-03-06T15:28:42.893Z,101180.25
2023-03-06T15:31:33.725Z,101186.63
2023-03-06T15:34:24.404Z,101183.75
2023-03-06T15:37:00.351Z,101193.31
2023-03-06T15:39:40.773Z,101192.84
2023-03-06T15:42:24.118Z,101196.00
2023-03-06T15:44:57.551Z,101195.59
2023-03-06T15:47:28.448Z,101195.13
2023-03-06T15:50:00.099Z,101203.97
2023-03-06T15:52:30.865Z,101192.22
2023-03-06T15:55:01.695Z,101204.69
2023-03-06T15:57:32.422Z,101215.13
2023-03-06T16:00:04.546Z,101218.34
2023-03-06T16:03:29.619Z,101230.44
2023-03-06T16:06:02.068Z,101228.34
2023-03-06T16:08:32.713Z,101228.34
2023-03-06T16:11:03.034Z,101241.19
2023-03-06T16:13:33.441Z,101240.34
2023-03-06T16:16:04.636Z,101242.72
2023-03-06T16:18:35.696Z,101244.72
2023-03-06T16:21:08.738Z,101250.75
2023-03-06T16:23:40.552Z,101257.56
2023-03-06T16:26:22.225Z,101257.91
2023-03-06T16:28:53.738Z,101259.91
2023-03-06T16:31:24.068Z,101271.53
2023-03-06T16:33:54.887Z,101268.28
2023-03-06T16:36:31.146Z,101273.09
2023-03-06T16:39:01.617Z,101265.00
2023-03-06T16:41:31.552Z,101277.09
2023-03-06T16:44:01.794Z,101268.63
2023-03-06T16:46:32.555Z,101279.13
2023-03-06T16:49:02.992Z,101276.28
2023-03-06T16:51:34.673Z,101288.38
2023-03-06T16:54:04.788Z,101283.91
2023-03-06T16:56:35.423Z,101288.75
2023-03-06T16:59:06.095Z,101293.59
2023-03-06T17:01:36.850Z,101301.19
2023-03-06T17:04:07.492Z,101295.56
2023-03-06T17:06:39.329Z,101298.38
2023-03-06T17:09:11.206Z,101302.38
2023-03-06T17:11:43.511Z,101304.03
2023-03-06T17:14:14.134Z,101304.03
2023-03-06T17:16:44.768Z,101314.50
2023-03-06T17:19:17.262Z,101312.47
2023-03-06T17:21:50.381Z,101315.69
2023-03-06T17:24:20.037Z,101312.00
2023-03-06T17:26:50.175Z,101324.47
2023-03-06T17:29:20.907Z,101323.66
2023-03-06T17:31:51.566Z,101318.03
2023-03-06T17:34:24.279Z,101318.84
2023-03-06T17:36:57.132Z,101311.94
2023-03-06T17:39:27.627Z,101319.91
2023-03-06T17:41:58.244Z,101323.91
2023-03-06T17:44:28.351Z,101322.31
2023-03-06T17:46:58.762Z,101316.66
2023-03-06T17:49:29.191Z,101324.66
2023-03-06T17:52:03.993Z,101325.47
2023-03-06T17:54:35.628Z,101318.91
2023-03-06T17:57:06.371Z,101333.00
2023-03-06T17:59:37.021Z,101330.88
2023-03-06T18:02:08.228Z,101332.53
2023-03-06T18:04:38.686Z,101327.22
2023-03-06T18:07:11.860Z,101323.97
2023-03-06T18:09:44.873Z,101323.13
2023-03-06T18:12:15.362Z,101323.88
2023-03-06T18:14:46.605Z,101316.13
2023-03-06T18:17:17.429Z,101318.50
2023-03-06T18:19:48.369Z,101319.56
2023-03-06T18:22:20.633Z,101323.94
2023-03-06T18:24:51.093Z,101320.19
2023-03-06T18:27:22.385Z,101332.16
2023-03-06T18:29:55.861Z,101343.81
2023-03-06T18:32:26.511Z,101343.00
2023-03-06T18:34:57.521Z,101344.97
2023-03-06T18:37:29.747Z,101341.34
2023-03-06T18:40:00.163Z,101343.00
2023-03-06T18:42:30.347Z,101340.19
2023-03-06T18:45:00.534Z,101347.00
2023-03-06T18:47:31.289Z,101347.00
2023-03-06T18:50:03.253Z,101344.97
2023-03-06T18:52:38.742Z,101349.44
2023-03-06T18:55:10.359Z,101348.63
2023-03-06T18:57:41.322Z,101347.47
2023-03-06T19:00:14.287Z,101350.63
2023-03-06T19:02:45.869Z,101352.63
2023-03-06T19:05:17.947Z,101349.81
2023-03-06T19:07:52.770Z,101352.63
2023-03-06T19:10:23.086Z,101352.97
2023-03-06T19:12:55.169Z,101359.44
2023-03-06T19:15:27.425Z,101353.34
2023-03-06T19:17:58.344Z,101352.53
2023-03-06T19:20:31.589Z,101348.88
2023-03-06T19:23:04.605Z,101340.78
2023-03-06T19:25:35.883Z,101346.75
2023-03-06T19:28:09.991Z,101347.97
2023-03-06T19:30:44.834Z,101345.16
2023-03-06T19:33:16.929Z,101345.50
2023-03-06T19:35:48.303Z,101344.69
2023-03-06T19:38:22.503Z,101351.50
2023-03-06T19:40:54.517Z,101353.94
2023-03-06T19:43:25.313Z,101342.22
2023-03-06T19:45:56.902Z,101343.41
2023-03-06T19:48:28.180Z,101351.84
2023-03-06T19:50:58.984Z,101353.84
2023-03-06T19:53:32.355Z,101355.47
2023-03-06T19:56:08.332Z,101353.84
2023-03-06T19:58:41.114Z,101352.19
2023-03-06T20:01:15.151Z,101359.00
2023-03-06T20:03:45.999Z,101353.28
2023-03-06T20:06:19.476Z,101359.28
2023-03-06T20:08:51.684Z,101360.81
2023-03-06T20:11:24.839Z,101354.25
2023-03-06T20:13:56.171Z,101360.25
2023-03-06T20:16:28.332Z,101365.88
2023-03-06T20:19:00.474Z,101367.03
2023-03-06T20:21:32.953Z,101366.19
2023-03-06T20:24:04.701Z,101355.78
2023-03-06T20:26:37.483Z,101357.41
2023-03-06T20:29:07.944Z,101355.78
2023-03-06T20:31:38.430Z,101348.97
2023-03-06T20:34:09.270Z,101347.31
2023-03-06T20:36:42.635Z,101349.78
2023-03-06T20:39:17.456Z,101350.59
2023-03-06T20:41:48.330Z,101344.94
2023-03-06T20:44:21.803Z,101338.50
2023-03-06T20:46:52.448Z,101346.16
2023-03-06T20:49:22.655Z,101350.94
2023-03-06T20:51:53.274Z,101355.78
2023-03-06T20:54:25.437Z,101352.13
2023-03-06T20:56:55.413Z,101345.69
2023-03-06T20:59:26.225Z,101356.13
2023-03-06T21:01:56.181Z,101346.00
2023-03-06T21:04:27.109Z,101342.75
2023-03-06T21:06:57.516Z,101343.06
2023-03-06T21:09:30.185Z,101350.72
2023-03-06T21:12:00.652Z,101342.25
2023-03-06T21:14:31.629Z,101343.81
2023-03-06T21:17:02.393Z,101351.41
2023-03-06T21:19:32.984Z,101350.59
2023-03-06T21:22:03.576Z,101348.97
2023-03-06T21:24:35.812Z,101348.97
2023-03-06T21:27:06.736Z,101347.31
2023-03-06T21:29:37.415Z,101346.47
2023-03-06T21:32:11.500Z,101344.88
2023-03-06T21:34:42.488Z,101340.03
2023-03-06T21:37:12.330Z,101336.44
2023-03-06T21:39:45.083Z,101331.59
2023-03-06T21:42:15.654Z,101329.97
2023-03-06T21:44:47.143Z,101327.16
2023-03-06T21:47:17.646Z,101333.13
2023-03-06T21:49:50.483Z,101330.66
2023-03-06T21:52:21.180Z,101329.06
2023-03-06T21:54:54.288Z,101330.56
2023-03-06T21:57:24.791Z,101323.28
2023-03-06T21:59:55.355Z,101327.28
2023-03-06T22:02:25.852Z,101326.84
2023-03-06T22:04:56.135Z,101332.00
2023-03-06T22:07:27.683Z,101323.06
2023-03-06T22:09:59.713Z,101319.47
2023-03-06T22:12:30.637Z,101316.16
2023-03-06T22:15:01.189Z,101320.97
2023-03-06T22:17:32.420Z,101310.91
2023-03-06T22:20:02.914Z,101309.25
2023-03-06T22:22:34.063Z,101309.25
2023-03-06T22:25:08.560Z,101311.25
2023-03-06T22:27:38.504Z,101308.78
2023-03-06T22:30:10.686Z,101309.59
2023-03-06T22:32:41.270Z,101305.13
2023-03-06T22:35:12.515Z,101305.97
2023-03-06T22:37:42.440Z,101305.50
2023-03-06T22:40:16.248Z,101305.88
2023-03-06T22:42:46.724Z,101302.22
2023-03-06T22:45:16.736Z,101300.94
2023-03-06T22:47:47.538Z,101310.56
2023-03-06T22:50:17.384Z,101307.75
2023-03-06T22:52:47.945Z,101297.66
2023-03-06T22:55:20.113Z,101302.81
2023-03-06T22:57:50.613Z,101305.19
2023-03-06T23:00:22.299Z,101309.16
2023-03-06T23:02:52.765Z,101295.44
2023-03-06T23:05:23.736Z,101294.63
2023-03-06T23:07:54.855Z,101293.78
2023-03-06T23:10:26.574Z,101297.81
2023-03-06T23:12:57.103Z,101294.53
2023-03-06T23:15:27.532Z,101302.50
2023-03-06T23:17:58.048Z,101298.03
2023-03-06T23:20:28.923Z,101288.78
2023-03-06T23:22:58.940Z,101281.53
2023-03-06T23:25:31.792Z,101287.59
2023-03-06T23:28:02.295Z,101281.53
2023-03-06T23:30:32.609Z,101287.16
2023-03-06T23:33:03.552Z,101277.41
2023-03-06T23:35:35.857Z,101284.66
2023-03-06T23:38:06.921Z,101287.84
2023-03-06T23:40:40.386Z,101289.47
2023-03-06T23:43:10.923Z,101296.28
2023-03-06T23:45:41.495Z,101286.19
2023-03-06T23:48:11.843Z,101293.84
2023-03-06T23:50:43.185Z,101295.81
2023-03-06T23:53:13.744Z,101288.91
2023-03-06T23:55:46.815Z,101290.06
2023-03-06T23:58:19.424Z,101288.41
